sensor_id;sensor_type;location;lat;lon;timestamp;pressure;altitude;pressure_sealevel;temperature;humidity
62600;BME280;48671;48.922;2.346;2023-12-22T00:01:58;101244.75;;;13.63;62.56
62600;BME280;48671;48.922;2.346;2023-12-22T00:04:23;101267.03;;;13.71;62.37
62600;BME280;48671;48.922;2.346;2023-12-22T00:06:49;101244.94;;;13.58;62.59
62600;BME280;48671;48.922;2.346;2023-12-22T00:09:19;101260.16;;;13.69;62.38
62600;BME280;48671;48.922;2.346;2023-12-22T00:11:47;101254.00;;;13.70;62.19
62600;BME280;48671;48.922;2.346;2023-12-22T00:14:13;101247.22;;;13.66;62.40
62600;BME280;48671;48.922;2.346;2023-12-22T00:16:38;101231.75;;;13.61;62.06
62600;BME280;48671;48.922;2.346;2023-12-22T00:19:04;101225.81;;;13.57;62.11
62600;BME280;48671;48.922;2.346;2023-12-22T00:21:32;101240.19;;;13.68;61.77
62600;BME280;48671;48.922;2.346;2023-12-22T00:23:58;101205.91;;;13.53;61.72
62600;BME280;48671;48.922;2.346;2023-12-22T00:26:23;101238.31;;;13.70;61.96
62600;BME280;48671;48.922;2.346;2023-12-22T00:28:49;101223.44;;;13.51;61.11
62600;BME280;48671;48.922;2.346;2023-12-22T00:31:14;101235.19;;;13.62;61.71
62600;BME280;48671;48.922;2.346;2023-12-22T00:33:39;101242.84;;;13.66;61.18
62600;BME280;48671;48.922;2.346;2023-12-22T00:36:08;101239.38;;;13.66;61.06
62600;BME280;48671;48.922;2.346;2023-12-22T00:38:45;101220.88;;;13.50;61.24
62600;BME280;48671;48.922;2.346;2023-12-22T00:43:46;101213.75;;;13.53;60.55
62600;BME280;48671;48.922;2.346;2023-12-22T00:46:13;101218.09;;;13.54;60.81
62600;BME280;48671;48.922;2.346;2023-12-22T00:48:38;101212.88;;;13.54;60.01
62600;BME280;48671;48.922;2.346;2023-12-22T00:51:05;101187.75;;;13.30;60.09
62600;BME280;48671;48.922;2.346;2023-12-22T00:53:37;101224.28;;;13.52;60.75
62600;BME280;48671;48.922;2.346;2023-12-22T00:56:02;101208.63;;;13.31;60.48
62600;BME280;48671;48.922;2.346;2023-12-22T00:58:37;101207.59;;;13.34;60.50
62600;BME280;48671;48.922;2.346;2023-12-22T01:01:03;101209.50;;;13.30;60.07
62600;BME280;48671;48.922;2.346;2023-12-22T01:03:28;101235.81;;;13.48;60.67
62600;BME280;48671;48.922;2.346;2023-12-22T01:05:53;101233.25;;;13.46;59.94
62600;BME280;48671;48.922;2.346;2023-12-22T01:08:28;101213.84;;;13.31;59.96
62600;BME280;48671;48.922;2.346;2023-12-22T01:10:56;101200.94;;;13.27;60.07
62600;BME280;48671;48.922;2.346;2023-12-22T01:13:21;101245.78;;;13.38;60.02
62600;BME280;48671;48.922;2.346;2023-12-22T01:15:47;101252.84;;;13.36;59.89
62600;BME280;48671;48.922;2.346;2023-12-22T01:18:15;101265.56;;;13.44;59.97
62600;BME280;48671;48.922;2.346;2023-12-22T01:20:47;101225.19;;;13.30;59.46
62600;BME280;48671;48.922;2.346;2023-12-22T01:23:15;101179.09;;;13.07;59.66
62600;BME280;48671;48.922;2.346;2023-12-22T01:25:40;101229.41;;;13.34;59.56
62600;BME280;48671;48.922;2.346;2023-12-22T01:28:09;101249.88;;;13.44;60.12
62600;BME280;48671;48.922;2.346;2023-12-22T01:30:37;101220.16;;;13.26;59.98
62600;BME280;48671;48.922;2.346;2023-12-22T01:33:19;101245.13;;;13.33;59.56
62600;BME280;48671;48.922;2.346;2023-12-22T01:35:51;101210.91;;;13.17;60.35
62600;BME280;48671;48.922;2.346;2023-12-22T01:38:17;101222.94;;;13.21;60.10
62600;BME280;48671;48.922;2.346;2023-12-22T01:40:48;101207.56;;;13.13;60.61
62600;BME280;48671;48.922;2.346;2023-12-22T01:43:13;101233.03;;;13.30;60.28
62600;BME280;48671;48.922;2.346;2023-12-22T01:45:39;101255.72;;;13.50;60.23
62600;BME280;48671;48.922;2.346;2023-12-22T01:48:16;101176.75;;;13.22;60.54
62600;BME280;48671;48.922;2.346;2023-12-22T01:50:42;101195.69;;;13.28;60.57
62600;BME280;48671;48.922;2.346;2023-12-22T01:53:10;101211.94;;;13.35;60.48
62600;BME280;48671;48.922;2.346;2023-12-22T01:55:45;101217.03;;;13.38;60.79
62600;BME280;48671;48.922;2.346;2023-12-22T01:58:11;101229.06;;;13.42;61.15
62600;BME280;48671;48.922;2.346;2023-12-22T02:00:37;101212.50;;;13.21;61.43
62600;BME280;48671;48.922;2.346;2023-12-22T02:05:54;101257.25;;;13.34;61.40
62600;BME280;48671;48.922;2.346;2023-12-22T02:09:06;101279.53;;;13.44;61.54
62600;BME280;48671;48.922;2.346;2023-12-22T02:11:13;101274.66;;;13.35;61.76
62600;BME280;48671;48.922;2.346;2023-12-22T02:13:38;101260.03;;;13.31;62.04
62600;BME280;48671;48.922;2.346;2023-12-22T02:16:10;101274.53;;;13.38;62.06
62600;BME280;48671;48.922;2.346;2023-12-22T02:18:43;101259.13;;;13.32;62.18
62600;BME280;48671;48.922;2.346;2023-12-22T02:21:18;101266.09;;;13.31;62.02
62600;BME280;48671;48.922;2.346;2023-12-22T02:23:43;101296.09;;;13.43;62.36
62600;BME280;48671;48.922;2.346;2023-12-22T02:26:40;101289.19;;;13.42;62.24
62600;BME280;48671;48.922;2.346;2023-12-22T02:29:11;101307.56;;;13.41;62.41
62600;BME280;48671;48.922;2.346;2023-12-22T02:31:55;101293.59;;;13.40;62.56
62600;BME280;48671;48.922;2.346;2023-12-22T02:34:31;101263.75;;;13.25;62.29
62600;BME280;48671;48.922;2.346;2023-12-22T02:36:58;101268.22;;;13.22;62.60
62600;BME280;48671;48.922;2.346;2023-12-22T02:39:24;101286.66;;;13.41;62.35
62600;BME280;48671;48.922;2.346;2023-12-22T02:42:08;101282.63;;;13.32;62.52
62600;BME280;48671;48.922;2.346;2023-12-22T02:44:34;101249.38;;;13.13;62.29
62600;BME280;48671;48.922;2.346;2023-12-22T02:46:59;101286.00;;;13.34;61.91
62600;BME280;48671;48.922;2.346;2023-12-22T02:49:40;101267.41;;;13.20;62.32
62600;BME280;48671;48.922;2.346;2023-12-22T02:52:05;101262.91;;;13.25;62.29
62600;BME280;48671;48.922;2.346;2023-12-22T02:54:30;101279.22;;;13.30;62.33
62600;BME280;48671;48.922;2.346;2023-12-22T02:56:58;101268.38;;;13.17;62.54
62600;BME280;48671;48.922;2.346;2023-12-22T02:59:28;101271.84;;;13.18;62.27
62600;BME280;48671;48.922;2.346;2023-12-22T03:01:53;101250.28;;;13.12;62.03
62600;BME280;48671;48.922;2.346;2023-12-22T03:04:19;101258.59;;;13.22;62.14
62600;BME280;48671;48.922;2.346;2023-12-22T03:06:44;101271.34;;;13.31;62.22
62600;BME280;48671;48.922;2.346;2023-12-22T03:09:09;101274.47;;;13.40;62.17
62600;BME280;48671;48.922;2.346;2023-12-22T03:11:35;101263.38;;;13.34;62.07
62600;BME280;48671;48.922;2.346;2023-12-22T03:14:00;101260.03;;;13.31;62.10
62600;BME280;48671;48.922;2.346;2023-12-22T03:16:26;101244.53;;;13.26;61.93
62600;BME280;48671;48.922;2.346;2023-12-22T03:18:51;101239.31;;;13.26;61.85
62600;BME280;48671;48.922;2.346;2023-12-22T03:21:23;101257.72;;;13.44;61.88
62600;BME280;48671;48.922;2.346;2023-12-22T03:23:48;101253.44;;;13.43;61.57
62600;BME280;48671;48.922;2.346;2023-12-22T03:26:14;101250.09;;;13.39;61.58
62600;BME280;48671;48.922;2.346;2023-12-22T03:28:42;101250.06;;;13.41;61.45
62600;BME280;48671;48.922;2.346;2023-12-22T03:31:07;101248.31;;;13.40;61.77
62600;BME280;48671;48.922;2.346;2023-12-22T03:33:33;101246.69;;;13.37;61.62
62600;BME280;48671;48.922;2.346;2023-12-22T03:35:58;101260.31;;;13.45;61.77
62600;BME280;48671;48.922;2.346;2023-12-22T03:38:24;101262.06;;;13.45;61.52
62600;BME280;48671;48.922;2.346;2023-12-22T03:41:12;101268.59;;;13.55;61.42
62600;BME280;48671;48.922;2.346;2023-12-22T03:43:38;101267.88;;;13.51;61.55
62600;BME280;48671;48.922;2.346;2023-12-22T03:46:03;101276.50;;;13.53;61.63
62600;BME280;48671;48.922;2.346;2023-12-22T03:48:29;101275.59;;;13.54;61.60
62600;BME280;48671;48.922;2.346;2023-12-22T03:50:54;101270.56;;;13.50;61.55
62600;BME280;48671;48.922;2.346;2023-12-22T03:53:34;101253.09;;;13.50;61.49
62600;BME280;48671;48.922;2.346;2023-12-22T03:56:13;101264.81;;;13.62;61.86
62600;BME280;48671;48.922;2.346;2023-12-22T03:58:38;101214.00;;;13.27;61.90
62600;BME280;48671;48.922;2.346;2023-12-22T04:01:06;101251.41;;;13.49;61.82
62600;BME280;48671;48.922;2.346;2023-12-22T04:03:33;101238.84;;;13.37;62.08
62600;BME280;48671;48.922;2.346;2023-12-22T04:06:07;101257.19;;;13.57;62.11
62600;BME280;48671;48.922;2.346;2023-12-22T04:08:38;101235.50;;;13.33;62.16
62600;BME280;48671;48.922;2.346;2023-12-22T04:11:07;101267.09;;;13.49;62.27
62600;BME280;48671;48.922;2.346;2023-12-22T04:13:32;101262.53;;;13.54;62.34
62600;BME280;48671;48.922;2.346;2023-12-22T04:16:03;101282.06;;;13.66;62.35
62600;BME280;48671;48.922;2.346;2023-12-22T04:18:30;101253.75;;;13.55;62.51
62600;BME280;48671;48.922;2.346;2023-12-22T04:20:56;101236.56;;;13.50;62.41
62600;BME280;48671;48.922;2.346;2023-12-22T04:23:37;101273.44;;;13.64;62.30
62600;BME280;48671;48.922;2.346;2023-12-22T04:26:03;101258.63;;;13.44;63.90
62600;BME280;48671;48.922;2.346;2023-12-22T04:28:28;101251.78;;;13.40;63.95
62600;BME280;48671;48.922;2.346;2023-12-22T04:30:57;101260.63;;;13.38;65.51
62600;BME280;48671;48.922;2.346;2023-12-22T04:33:25;101259.63;;;13.40;65.25
62600;BME280;48671;48.922;2.346;2023-12-22T04:35:54;101277.03;;;13.41;66.69
62600;BME280;48671;48.922;2.346;2023-12-22T04:38:22;101265.31;;;13.29;66.72
62600;BME280;48671;48.922;2.346;2023-12-22T04:40:47;101262.31;;;13.17;66.86
62600;BME280;48671;48.922;2.346;2023-12-22T04:43:16;101271.69;;;13.22;67.64
62600;BME280;48671;48.922;2.346;2023-12-22T04:45:44;101245.63;;;12.99;67.87
62600;BME280;48671;48.922;2.346;2023-12-22T04:48:09;101271.00;;;13.17;68.77
62600;BME280;48671;48.922;2.346;2023-12-22T04:50:35;101254.97;;;13.04;68.91
62600;BME280;48671;48.922;2.346;2023-12-22T04:53:00;101254.84;;;13.07;69.37
62600;BME280;48671;48.922;2.346;2023-12-22T04:55:25;101255.75;;;13.06;69.38
62600;BME280;48671;48.922;2.346;2023-12-22T04:57:51;101249.13;;;12.98;69.09
62600;BME280;48671;48.922;2.346;2023-12-22T05:00:16;101238.03;;;12.93;68.98
62600;BME280;48671;48.922;2.346;2023-12-22T05:02:42;101266.09;;;13.09;68.96
62600;BME280;48671;48.922;2.346;2023-12-22T05:05:07;101279.41;;;13.03;69.66
62600;BME280;48671;48.922;2.346;2023-12-22T05:07:40;101283.78;;;13.03;69.91
62600;BME280;48671;48.922;2.346;2023-12-22T05:10:07;101281.28;;;13.00;69.85
62600;BME280;48671;48.922;2.346;2023-12-22T05:12:35;101240.16;;;12.83;69.88
62600;BME280;48671;48.922;2.346;2023-12-22T05:15:00;101244.53;;;12.82;69.52
62600;BME280;48671;48.922;2.346;2023-12-22T05:17:26;101266.41;;;13.02;68.83
62600;BME280;48671;48.922;2.346;2023-12-22T05:19:58;101229.00;;;12.79;69.38
62600;BME280;48671;48.922;2.346;2023-12-22T05:22:24;101252.03;;;12.92;69.79
62600;BME280;48671;48.922;2.346;2023-12-22T05:24:49;101279.06;;;13.11;69.57
62600;BME280;48671;48.922;2.346;2023-12-22T05:27:15;101277.50;;;13.07;69.40
62600;BME280;48671;48.922;2.346;2023-12-22T05:29:43;101268.94;;;13.03;69.44
62600;BME280;48671;48.922;2.346;2023-12-22T05:32:08;101239.72;;;12.94;69.56
62600;BME280;48671;48.922;2.346;2023-12-22T05:34:34;101259.41;;;13.02;69.76
62600;BME280;48671;48.922;2.346;2023-12-22T05:36:59;101255.09;;;13.01;70.54
62600;BME280;48671;48.922;2.346;2023-12-22T05:39:24;101254.97;;;13.04;69.63
62600;BME280;48671;48.922;2.346;2023-12-22T05:41:53;101270.34;;;13.12;69.34
62600;BME280;48671;48.922;2.346;2023-12-22T05:44:24;101259.53;;;12.99;69.38
62600;BME280;48671;48.922;2.346;2023-12-22T05:46:49;101277.22;;;13.15;69.54
62600;BME280;48671;48.922;2.346;2023-12-22T05:49:15;101244.72;;;13.00;69.16
62600;BME280;48671;48.922;2.346;2023-12-22T05:51:41;101222.25;;;12.96;69.17
62600;BME280;48671;48.922;2.346;2023-12-22T05:54:13;101247.72;;;13.11;69.16
62600;BME280;48671;48.922;2.346;2023-12-22T05:56:38;101237.59;;;13.03;69.09
62600;BME280;48671;48.922;2.346;2023-12-22T05:59:04;101234.19;;;13.01;69.28
62600;BME280;48671;48.922;2.346;2023-12-22T06:01:29;101242.66;;;13.08;69.16
62600;BME280;48671;48.922;2.346;2023-12-22T06:03:54;101245.31;;;13.06;69.39
62600;BME280;48671;48.922;2.346;2023-12-22T06:06:20;101264.88;;;13.18;69.19
62600;BME280;48671;48.922;2.346;2023-12-22T06:08:46;101252.78;;;13.16;69.06
62600;BME280;48671;48.922;2.346;2023-12-22T06:11:11;101246.47;;;12.99;68.88
62600;BME280;48671;48.922;2.346;2023-12-22T06:13:37;101240.88;;;13.08;68.89
62600;BME280;48671;48.922;2.346;2023-12-22T06:16:02;101269.97;;;13.21;69.15
62600;BME280;48671;48.922;2.346;2023-12-22T06:18:28;101271.72;;;13.21;69.12
62600;BME280;48671;48.922;2.346;2023-12-22T06:20:53;101262.28;;;13.18;69.67
62600;BME280;48671;48.922;2.346;2023-12-22T06:23:19;101276.94;;;13.21;69.21
62600;BME280;48671;48.922;2.346;2023-12-22T06:25:45;101265.06;;;13.13;69.50
62600;BME280;48671;48.922;2.346;2023-12-22T06:28:11;101289.75;;;13.28;69.60
62600;BME280;48671;48.922;2.346;2023-12-22T06:30:37;101276.91;;;13.22;69.16
62600;BME280;48671;48.922;2.346;2023-12-22T06:33:03;101269.06;;;13.22;69.25
62600;BME280;48671;48.922;2.346;2023-12-22T06:35:28;101286.09;;;13.32;69.80
62600;BME280;48671;48.922;2.346;2023-12-22T06:37:54;101290.53;;;13.30;69.44
62600;BME280;48671;48.922;2.346;2023-12-22T06:40:37;101276.34;;;13.36;69.26
62600;BME280;48671;48.922;2.346;2023-12-22T06:43:12;101283.28;;;13.37;69.30
62600;BME280;48671;48.922;2.346;2023-12-22T06:45:38;101289.44;;;13.36;69.26
62600;BME280;48671;48.922;2.346;2023-12-22T06:48:05;101251.69;;;13.21;69.45
62600;BME280;48671;48.922;2.346;2023-12-22T06:50:31;101266.34;;;13.25;69.63
62600;BME280;48671;48.922;2.346;2023-12-22T06:52:56;101251.59;;;13.24;69.52
62600;BME280;48671;48.922;2.346;2023-12-22T06:55:24;101250.56;;;13.28;69.42
62600;BME280;48671;48.922;2.346;2023-12-22T06:57:50;101249.84;;;13.25;69.53
62600;BME280;48671;48.922;2.346;2023-12-22T07:00:15;101253.94;;;13.30;69.38
62600;BME280;48671;48.922;2.346;2023-12-22T07:02:41;101258.44;;;13.27;69.35
62600;BME280;48671;48.922;2.346;2023-12-22T07:07:35;101261.66;;;13.33;69.44
62600;BME280;48671;48.922;2.346;2023-12-22T07:10:01;101244.94;;;13.16;69.64
62600;BME280;48671;48.922;2.346;2023-12-22T07:12:26;101252.31;;;13.28;69.70
62600;BME280;48671;48.922;2.346;2023-12-22T07:14:51;101267.19;;;13.26;70.35
62600;BME280;48671;48.922;2.346;2023-12-22T07:17:17;101269.81;;;13.26;70.24
62600;BME280;48671;48.922;2.346;2023-12-22T07:19:45;101256.97;;;13.20;70.47
62600;BME280;48671;48.922;2.346;2023-12-22T07:22:11;101266.91;;;13.11;70.78
62600;BME280;48671;48.922;2.346;2023-12-22T07:24:39;101278.06;;;13.15;71.02
62600;BME280;48671;48.922;2.346;2023-12-22T07:27:04;101277.22;;;13.15;70.84
62600;BME280;48671;48.922;2.346;2023-12-22T07:29:30;101287.34;;;13.22;71.27
62600;BME280;48671;48.922;2.346;2023-12-22T07:31:58;101265.97;;;13.12;71.07
62600;BME280;48671;48.922;2.346;2023-12-22T07:34:24;101258.34;;;13.08;71.04
62600;BME280;48671;48.922;2.346;2023-12-22T07:36:50;101265.84;;;13.16;70.91
62600;BME280;48671;48.922;2.346;2023-12-22T07:39:20;101273.50;;;13.20;71.46
62600;BME280;48671;48.922;2.346;2023-12-22T07:41:45;101300.34;;;13.24;70.87
62600;BME280;48671;48.922;2.346;2023-12-22T07:44:11;101259.34;;;13.04;71.20
62600;BME280;48671;48.922;2.346;2023-12-22T07:46:36;101291.72;;;13.22;70.77
62600;BME280;48671;48.922;2.346;2023-12-22T07:49:01;101311.63;;;13.26;70.76
62600;BME280;48671;48.922;2.346;2023-12-22T07:51:27;101303.66;;;13.29;70.37
62600;BME280;48671;48.922;2.346;2023-12-22T07:53:52;101276.41;;;13.12;70.35
62600;BME280;48671;48.922;2.346;2023-12-22T07:56:17;101249.94;;;13.00;70.77
62600;BME280;48671;48.922;2.346;2023-12-22T07:58:43;101290.81;;;13.23;70.40
62600;BME280;48671;48.922;2.346;2023-12-22T08:01:08;101293.66;;;13.17;70.39
62600;BME280;48671;48.922;2.346;2023-12-22T08:03:34;101302.88;;;13.27;70.34
62600;BME280;48671;48.922;2.346;2023-12-22T08:05:59;101300.19;;;13.28;70.25
62600;BME280;48671;48.922;2.346;2023-12-22T08:08:24;101293.06;;;13.10;71.03
62600;BME280;48671;48.922;2.346;2023-12-22T08:10:50;101325.38;;;13.31;70.70
62600;BME280;48671;48.922;2.346;2023-12-22T08:13:15;101322.75;;;13.31;70.76
62600;BME280;48671;48.922;2.346;2023-12-22T08:15:41;101306.00;;;13.13;70.80
62600;BME280;48671;48.922;2.346;2023-12-22T08:18:07;101298.91;;;13.17;71.17
62600;BME280;48671;48.922;2.346;2023-12-22T08:20:34;101303.47;;;13.11;71.40
62600;BME280;48671;48.922;2.346;2023-12-22T08:23:00;101313.81;;;13.15;71.48
62600;BME280;48671;48.922;2.346;2023-12-22T08:25:25;101308.63;;;13.13;71.55
62600;BME280;48671;48.922;2.346;2023-12-22T08:27:51;101323.84;;;13.24;71.51
62600;BME280;48671;48.922;2.346;2023-12-22T08:30:26;101325.69;;;13.22;71.98
62600;BME280;48671;48.922;2.346;2023-12-22T08:32:54;101327.47;;;13.21;71.68
62600;BME280;48671;48.922;2.346;2023-12-22T08:35:20;101298.25;;;13.11;72.40
62600;BME280;48671;48.922;2.346;2023-12-22T08:37:45;101303.50;;;13.10;71.89
62600;BME280;48671;48.922;2.346;2023-12-22T08:40:10;101309.19;;;13.21;71.66
62600;BME280;48671;48.922;2.346;2023-12-22T08:42:36;101322.00;;;13.27;71.92
62600;BME280;48671;48.922;2.346;2023-12-22T08:45:01;101326.34;;;13.28;71.74
62600;BME280;48671;48.922;2.346;2023-12-22T08:47:27;101322.88;;;13.28;71.75
62600;BME280;48671;48.922;2.346;2023-12-22T08:49:53;101329.00;;;13.27;71.40
62600;BME280;48671;48.922;2.346;2023-12-22T08:52:18;101337.31;;;13.37;71.25
62600;BME280;48671;48.922;2.346;2023-12-22T08:54:44;101332.03;;;13.38;71.10
62600;BME280;48671;48.922;2.346;2023-12-22T08:57:09;101346.69;;;13.42;70.81
62600;BME280;48671;48.922;2.346;2023-12-22T08:59:38;101362.59;;;13.58;70.75
62600;BME280;48671;48.922;2.346;2023-12-22T09:02:06;101347.41;;;13.46;70.59
62600;BME280;48671;48.922;2.346;2023-12-22T09:04:31;101334.66;;;13.38;70.92
62600;BME280;48671;48.922;2.346;2023-12-22T09:06:57;101349.81;;;13.50;70.60
62600;BME280;48671;48.922;2.346;2023-12-22T09:09:22;101339.56;;;13.46;70.56
62600;BME280;48671;48.922;2.346;2023-12-22T09:11:49;101368.59;;;13.60;70.81
62600;BME280;48671;48.922;2.346;2023-12-22T09:14:14;101362.59;;;13.58;70.92
62600;BME280;48671;48.922;2.346;2023-12-22T09:16:40;101385.75;;;13.67;70.89
62600;BME280;48671;48.922;2.346;2023-12-22T09:19:06;101338.75;;;13.44;71.42
62600;BME280;48671;48.922;2.346;2023-12-22T09:21:31;101356.78;;;13.51;71.16
62600;BME280;48671;48.922;2.346;2023-12-22T09:23:56;101340.38;;;13.48;70.83
62600;BME280;48671;48.922;2.346;2023-12-22T09:26:22;101322.25;;;13.43;70.29
62600;BME280;48671;48.922;2.346;2023-12-22T09:28:48;101351.22;;;13.59;70.37
62600;BME280;48671;48.922;2.346;2023-12-22T09:31:13;101346.91;;;13.58;69.73
62600;BME280;48671;48.922;2.346;2023-12-22T09:33:40;101354.44;;;13.66;70.20
62600;BME280;48671;48.922;2.346;2023-12-22T09:36:06;101345.94;;;13.61;69.55
62600;BME280;48671;48.922;2.346;2023-12-22T09:38:31;101360.59;;;13.65;69.39
62600;BME280;48671;48.922;2.346;2023-12-22T09:41:00;101358.56;;;13.71;69.39
62600;BME280;48671;48.922;2.346;2023-12-22T09:43:26;101345.41;;;13.73;69.17
62600;BME280;48671;48.922;2.346;2023-12-22T09:45:52;101352.38;;;13.74;68.34
62600;BME280;48671;48.922;2.346;2023-12-22T09:48:18;101364.19;;;13.82;68.98
62600;BME280;48671;48.922;2.346;2023-12-22T09:50:46;101377.84;;;13.89;68.92
62600;BME280;48671;48.922;2.346;2023-12-22T09:53:15;101348.63;;;13.79;68.32
62600;BME280;48671;48.922;2.346;2023-12-22T09:55:45;101369.13;;;13.90;68.83
62600;BME280;48671;48.922;2.346;2023-12-22T09:58:13;101351.09;;;13.82;68.49
62600;BME280;48671;48.922;2.346;2023-12-22T10:00:42;101347.72;;;13.80;68.70
62600;BME280;48671;48.922;2.346;2023-12-22T10:03:09;101352.72;;;13.87;68.44
62600;BME280;48671;48.922;2.346;2023-12-22T10:05:36;101349.34;;;13.83;68.86
62600;BME280;48671;48.922;2.346;2023-12-22T10:08:02;101364.13;;;13.84;68.82
62600;BME280;48671;48.922;2.346;2023-12-22T10:10:30;101358.97;;;13.82;68.21
62600;BME280;48671;48.922;2.346;2023-12-22T10:12:58;101357.06;;;13.86;68.60
62600;BME280;48671;48.922;2.346;2023-12-22T10:15:24;101358.97;;;13.82;68.53
62600;BME280;48671;48.922;2.346;2023-12-22T10:17:50;101370.13;;;13.86;69.26
62600;BME280;48671;48.922;2.346;2023-12-22T10:20:16;101376.72;;;13.96;68.29
62600;BME280;48671;48.922;2.346;2023-12-22T10:22:42;101367.41;;;13.89;68.28
62600;BME280;48671;48.922;2.346;2023-12-22T10:25:08;101366.63;;;13.87;68.42
62600;BME280;48671;48.922;2.346;2023-12-22T10:27:35;101372.38;;;13.95;68.30
62600;BME280;48671;48.922;2.346;2023-12-22T10:30:07;101371.31;;;13.99;68.36
62600;BME280;48671;48.922;2.346;2023-12-22T10:32:33;101375.84;;;13.96;68.16
62600;BME280;48671;48.922;2.346;2023-12-22T10:34:58;101361.31;;;13.89;67.98
62600;BME280;48671;48.922;2.346;2023-12-22T10:37:23;101374.72;;;14.01;68.31
62600;BME280;48671;48.922;2.346;2023-12-22T10:39:52;101376.38;;;14.04;68.01
62600;BME280;48671;48.922;2.346;2023-12-22T10:42:19;101378.31;;;13.99;68.54
62600;BME280;48671;48.922;2.346;2023-12-22T10:44:44;101364.91;;;13.86;68.53
62600;BME280;48671;48.922;2.346;2023-12-22T10:47:10;101380.22;;;13.95;68.78
62600;BME280;48671;48.922;2.346;2023-12-22T10:49:36;101381.16;;;13.94;68.79
62600;BME280;48671;48.922;2.346;2023-12-22T10:52:02;101350.13;;;13.85;68.63
62600;BME280;48671;48.922;2.346;2023-12-22T10:54:27;101359.53;;;13.89;68.75
62600;BME280;48671;48.922;2.346;2023-12-22T10:56:58;101348.13;;;13.92;68.61
62600;BME280;48671;48.922;2.346;2023-12-22T10:59:28;101333.50;;;13.86;68.51
62600;BME280;48671;48.922;2.346;2023-12-22T11:01:56;101358.09;;;14.02;68.87
62600;BME280;48671;48.922;2.346;2023-12-22T11:04:23;101366.75;;;14.04;68.70
62600;BME280;48671;48.922;2.346;2023-12-22T11:06:57;101340.94;;;13.97;68.79
62600;BME280;48671;48.922;2.346;2023-12-22T11:09:23;101349.16;;;14.08;68.59
62600;BME280;48671;48.922;2.346;2023-12-22T11:11:51;101351.19;;;14.01;68.94
62600;BME280;48671;48.922;2.346;2023-12-22T11:14:19;101352.88;;;14.02;69.88
62600;BME280;48671;48.922;2.346;2023-12-22T11:16:57;101339.66;;;13.85;69.05
62600;BME280;48671;48.922;2.346;2023-12-22T11:19:26;101326.09;;;13.77;69.72
62600;BME280;48671;48.922;2.346;2023-12-22T11:21:52;101327.19;;;13.71;69.65
62600;BME280;48671;48.922;2.346;2023-12-22T11:24:20;101351.78;;;13.88;69.38
62600;BME280;48671;48.922;2.346;2023-12-22T11:26:47;101350.34;;;13.80;70.12
62600;BME280;48671;48.922;2.346;2023-12-22T11:29:15;101341.66;;;13.80;69.68
62600;BME280;48671;48.922;2.346;2023-12-22T11:31:45;101351.81;;;13.86;69.82
62600;BME280;48671;48.922;2.346;2023-12-22T11:34:11;101360.09;;;13.77;70.18
62600;BME280;48671;48.922;2.346;2023-12-22T11:36:38;101357.66;;;13.72;70.59
62600;BME280;48671;48.922;2.346;2023-12-22T11:39:03;101346.00;;;13.59;70.43
62600;BME280;48671;48.922;2.346;2023-12-22T11:41:32;101354.56;;;13.63;70.67
62600;BME280;48671;48.922;2.346;2023-12-22T11:43:59;101335.91;;;13.50;71.02
62600;BME280;48671;48.922;2.346;2023-12-22T11:46:32;101348.00;;;13.52;70.74
62600;BME280;48671;48.922;2.346;2023-12-22T11:49:04;101343.38;;;13.59;70.47
62600;BME280;48671;48.922;2.346;2023-12-22T11:51:45;101371.81;;;13.67;70.54
62600;BME280;48671;48.922;2.346;2023-12-22T11:54:46;101386.50;;;13.71;70.54
62600;BME280;48671;48.922;2.346;2023-12-22T11:57:39;101355.84;;;13.52;70.93
62600;BME280;48671;48.922;2.346;2023-12-22T12:00:10;101361.94;;;13.53;71.19
62600;BME280;48671;48.922;2.346;2023-12-22T12:02:56;101383.31;;;13.63;70.85
62600;BME280;48671;48.922;2.346;2023-12-22T12:05:22;101361.28;;;13.48;71.16
62600;BME280;48671;48.922;2.346;2023-12-22T12:07:49;101389.72;;;13.55;70.78
62600;BME280;48671;48.922;2.346;2023-12-22T12:13:11;101389.28;;;13.66;70.06
62600;BME280;48671;48.922;2.346;2023-12-22T12:15:41;101395.44;;;13.65;69.72
62600;BME280;48671;48.922;2.346;2023-12-22T12:18:09;101393.72;;;13.64;69.69
62600;BME280;48671;48.922;2.346;2023-12-22T12:20:57;101376.03;;;13.49;69.42
62600;BME280;48671;48.922;2.346;2023-12-22T12:23:24;101378.47;;;13.53;68.71
62600;BME280;48671;48.922;2.346;2023-12-22T12:25:49;101393.66;;;13.66;68.39
62600;BME280;48671;48.922;2.346;2023-12-22T12:28:15;101379.84;;;13.62;68.80
62600;BME280;48671;48.922;2.346;2023-12-22T12:30:43;101388.19;;;13.72;68.48
62600;BME280;48671;48.922;2.346;2023-12-22T12:33:11;101387.22;;;13.74;68.38
62600;BME280;48671;48.922;2.346;2023-12-22T12:35:41;101379.28;;;13.76;67.54
62600;BME280;48671;48.922;2.346;2023-12-22T12:38:11;101364.16;;;13.62;67.68
62600;BME280;48671;48.922;2.346;2023-12-22T12:40:39;101345.66;;;13.67;66.79
62600;BME280;48671;48.922;2.346;2023-12-22T12:43:06;101368.09;;;13.72;66.91
62600;BME280;48671;48.922;2.346;2023-12-22T12:45:31;101361.44;;;13.65;66.06
62600;BME280;48671;48.922;2.346;2023-12-22T12:47:57;101334.09;;;13.52;66.94
62600;BME280;48671;48.922;2.346;2023-12-22T12:50:28;101365.25;;;13.78;66.00
62600;BME280;48671;48.922;2.346;2023-12-22T12:52:59;101362.63;;;13.78;65.77
62600;BME280;48671;48.922;2.346;2023-12-22T12:55:44;101349.16;;;13.67;66.04
62600;BME280;48671;48.922;2.346;2023-12-22T12:58:09;101318.31;;;13.53;65.37
62600;BME280;48671;48.922;2.346;2023-12-22T13:00:34;101361.78;;;13.78;64.64
62600;BME280;48671;48.922;2.346;2023-12-22T13:03:05;101350.06;;;13.66;64.72
62600;BME280;48671;48.922;2.346;2023-12-22T13:05:34;101340.50;;;13.65;64.07